createdAt,value
2022-11-09T00:04:22.400Z,12.20
2022-11-09T00:14:49.853Z,11.80
2022-11-09T00:25:17.755Z,11.10
2022-11-09T00:35:45.092Z,13.00
2022-11-09T00:46:12.893Z,9.20
2022-11-09T00:56:40.645Z,9.90
2022-11-09T01:07:09.601Z,9.30
2022-11-09T01:17:37.042Z,9.70
2022-11-09T01:28:04.431Z,10.40
2022-11-09T01:38:32.120Z,7.60
2022-11-09T01:49:04.833Z,9.00
2022-11-09T01:59:35.185Z,9.40
2022-11-09T02:10:09.162Z,7.90
2022-11-09T02:20:47.742Z,9.60
2022-11-09T02:31:18.132Z,8.50
2022-11-09T02:41:49.481Z,7.70
2022-11-09T02:52:16.875Z,8.00
2022-11-09T03:02:44.374Z,7.70
2022-11-09T03:13:11.693Z,9.00
2022-11-09T03:23:38.917Z,8.80
2022-11-09T03:34:06.142Z,8.10
2022-11-09T03:44:33.404Z,8.20
2022-11-09T03:55:00.666Z,11.90
2022-11-09T04:05:28.794Z,9.80
2022-11-09T04:15:56.053Z,11.40
2022-11-09T04:26:23.303Z,10.40
2022-11-09T04:36:50.699Z,13.60
2022-11-09T04:47:17.977Z,13.00
2022-11-09T04:57:45.290Z,13.70
2022-11-09T05:08:12.679Z,13.20
2022-11-09T05:18:40.040Z,13.10
2022-11-09T05:29:09.848Z,12.70
2022-11-09T05:39:37.171Z,15.90
2022-11-09T05:50:04.778Z,20.20
2022-11-09T06:00:32.326Z,27.10
2022-11-09T06:11:05.822Z,18.90
2022-11-09T06:21:33.079Z,16.00
2022-11-09T06:32:00.683Z,15.80
2022-11-09T06:42:28.001Z,18.20
2022-11-09T06:52:59.027Z,20.60
2022-11-09T07:03:26.740Z,20.40
2022-11-09T07:13:57.417Z,18.30
2022-11-09T07:24:25.460Z,17.30
2022-11-09T07:35:05.988Z,16.70
2022-11-09T07:45:58.886Z,16.80
2022-11-09T07:56:50.855Z,18.00
2022-11-09T08:07:42.939Z,17.70
2022-11-09T08:18:42.902Z,20.10
2022-11-09T08:29:48.912Z,21.30
2022-11-09T08:40:42.831Z,20.80
2022-11-09T08:51:34.959Z,17.20
2022-11-09T09:02:27.942Z,16.30
2022-11-09T09:13:20.915Z,15.40
2022-11-09T09:24:12.868Z,16.40
2022-11-09T09:35:04.808Z,16.10
2022-11-09T09:46:00.827Z,15.50
2022-11-09T09:56:58.833Z,14.70
2022-11-09T10:07:55.842Z,14.60
2022-11-09T10:19:17.753Z,13.60
2022-11-09T10:30:09.808Z,13.00
2022-11-09T10:41:07.817Z,12.50
2022-11-09T10:51:59.795Z,10.50
2022-11-09T11:03:00.736Z,10.70
2022-11-09T11:13:54.735Z,14.50
2022-11-09T11:24:57.759Z,11.50
2022-11-09T11:35:57.750Z,13.60
2022-11-09T11:47:00.830Z,14.90
2022-11-09T11:58:05.800Z,12.30
2022-11-09T12:09:19.693Z,12.30
2022-11-09T12:20:27.749Z,12.50
2022-11-09T12:31:30.737Z,11.00
2022-11-09T12:42:28.680Z,13.40
2022-11-09T12:53:23.199Z,13.90
2022-11-09T13:04:15.751Z,12.60
2022-11-09T13:15:07.728Z,13.90
2022-11-09T13:26:00.655Z,19.10
2022-11-09T13:36:52.789Z,11.80
2022-11-09T13:47:46.703Z,11.80
2022-11-09T13:58:44.650Z,12.40
2022-11-09T14:09:23.140Z,14.70
2022-11-09T14:20:00.247Z,15.50
2022-11-09T14:30:29.587Z,13.90
2022-11-09T14:40:57.531Z,15.90
2022-11-09T14:51:31.677Z,14.40
2022-11-09T15:02:08.814Z,13.60
2022-11-09T15:12:41.234Z,16.30
2022-11-09T15:23:39.096Z,15.90
2022-11-09T15:34:22.422Z,17.60
2022-11-09T15:44:54.336Z,14.20
2022-11-09T15:55:23.404Z,24.70
2022-11-09T16:05:50.684Z,22.50
2022-11-09T16:16:18.242Z,25.60
2022-11-09T16:26:45.903Z,39.00
2022-11-09T16:37:13.547Z,76.70
2022-11-09T16:47:45.431Z,31.10
2022-11-09T16:58:12.792Z,31.50
2022-11-09T17:08:40.779Z,28.80
2022-11-09T17:19:08.179Z,25.10
2022-11-09T17:29:37.487Z,23.60
2022-11-09T17:40:05.189Z,23.30
2022-11-09T17:50:32.593Z,26.20
2022-11-09T18:01:07.684Z,31.90
2022-11-09T18:11:35.623Z,27.10
2022-11-09T18:22:04.295Z,28.10
2022-11-09T18:32:34.079Z,27.00
2022-11-09T18:43:01.393Z,24.40
2022-11-09T18:53:30.705Z,25.60
2022-11-09T19:04:00.556Z,27.70
2022-11-09T19:14:28.697Z,33.10
2022-11-09T19:24:56.038Z,30.10
2022-11-09T19:35:26.353Z,29.40
2022-11-09T19:45:55.932Z,26.30
2022-11-09T19:56:25.094Z,26.50
2022-11-09T20:06:52.527Z,26.70
2022-11-09T20:17:19.884Z,32.80
2022-11-09T20:27:47.207Z,26.50
2022-11-09T20:38:14.527Z,25.30
2022-11-09T20:48:57.641Z,27.20
2022-11-09T20:59:25.245Z,23.70
2022-11-09T21:09:52.592Z,21.60
2022-11-09T21:20:20.329Z,19.60
2022-11-09T21:30:47.667Z,20.50
2022-11-09T21:41:32.543Z,16.60
2022-11-09T21:52:00.404Z,19.00
2022-11-09T22:02:27.720Z,17.30
2022-11-09T22:13:12.807Z,20.30
2022-11-09T22:23:40.312Z,17.80
2022-11-09T22:34:07.611Z,16.60
2022-11-09T22:44:34.936Z,16.00
2022-11-09T22:55:02.226Z,15.60
2022-11-09T23:05:29.405Z,15.60
2022-11-09T23:16:01.356Z,17.30
2022-11-09T23:26:29.380Z,17.00
2022-11-09T23:36:56.644Z,17.80
2022-11-09T23:47:24.150Z,16.00
2022-11-09T23:57:51.700Z,16.80
